Time;durP1;ratioP1;P1;durP2;ratioP2;P2;SDS_P1;SDS_P2;PMS_P1;PMS_P2;Temp;Humidity;BMP_temperature;BMP_pressure;BME280_temperature;BME280_humidity;BME280_pressure;Samples;Min_cycle;Max_cycle;Signal;HPM_P1;HPM_P2
2022/01/19 00:01:55;;;;;;;30.83;17.57;;;12.90;83.20;;;;;;5126778;29;20382;-31
2022/01/19 00:04:26;;;;;;;28.53;17.87;;;12.90;83.30;;;;;;5126486;29;20083;-30
2022/01/19 00:06:57;;;;;;;27.23;18.70;;;12.90;83.40;;;;;;5128976;28;20050;-34
2022/01/19 00:09:28;;;;;;;29.50;17.07;;;12.90;83.60;;;;;;5130174;29;20048;-31
2022/01/19 00:11:59;;;;;;;25.83;16.07;;;12.80;83.80;;;;;;5113065;29;20051;-31
2022/01/19 00:14:30;;;;;;;26.80;18.13;;;12.90;84.00;;;;;;5130713;29;20056;-32
2022/01/19 00:17:01;;;;;;;28.40;17.13;;;12.90;84.00;;;;;;5129853;28;20086;-31
2022/01/19 00:19:32;;;;;;;27.73;18.97;;;12.90;83.80;;;;;;5129995;29;20454;-32
2022/01/19 00:22:03;;;;;;;30.80;18.57;;;12.90;83.70;;;;;;5130159;29;20126;-32
2022/01/19 00:24:34;;;;;;;24.70;17.00;;;13.00;83.60;;;;;;5097063;29;20070;-31
2022/01/19 00:27:05;;;;;;;26.57;17.47;;;13.00;83.70;;;;;;5130037;29;20567;-31
2022/01/19 00:29:36;;;;;;;26.27;16.57;;;12.90;83.80;;;;;;5112609;29;20186;-33
2022/01/19 00:32:07;;;;;;;23.00;14.03;;;12.90;84.10;;;;;;5129778;29;20062;-34
2022/01/19 00:34:40;;;;;;;25.75;16.27;;;12.90;84.10;;;;;;5113195;29;20051;-31
2022/01/19 00:37:14;;;;;;;26.43;15.53;;;12.90;84.20;;;;;;5129668;29;20417;-33
2022/01/19 00:39:44;;;;;;;23.90;16.30;;;12.90;84.30;;;;;;5129234;29;20051;-32
2022/01/19 00:42:16;;;;;;;24.50;15.40;;;12.90;84.40;;;;;;5112294;29;20078;-32
2022/01/19 00:44:47;;;;;;;20.33;13.27;;;12.90;84.60;;;;;;5112479;29;20075;-34
2022/01/19 00:47:18;;;;;;;22.23;13.63;;;12.90;84.90;;;;;;5129505;29;20066;-31
2022/01/19 00:49:49;;;;;;;19.13;11.43;;;12.80;85.10;;;;;;5129234;29;20051;-31
2022/01/19 00:52:20;;;;;;;21.90;14.03;;;12.80;85.00;;;;;;5112619;29;20405;-32
2022/01/19 00:54:51;;;;;;;22.30;13.20;;;12.90;85.20;;;;;;5112336;29;20047;-32
2022/01/19 00:57:22;;;;;;;21.57;13.43;;;12.90;85.80;;;;;;5112274;29;20482;-33
2022/01/19 00:59:53;;;;;;;17.57;11.37;;;12.80;85.40;;;;;;5129592;29;20051;-33
2022/01/19 01:02:31;;;;;;;20.37;13.77;;;12.90;85.50;;;;;;5129045;29;20058;-31
2022/01/19 01:05:04;;;;;;;23.47;13.27;;;12.80;85.70;;;;;;5129530;29;20050;-31
2022/01/19 01:07:38;;;;;;;24.05;13.15;;;12.90;85.70;;;;;;5129207;29;20039;-33
2022/01/19 01:10:17;;;;;;;24.93;15.73;;;12.80;85.60;;;;;;5128504;29;20378;-33
2022/01/19 01:12:51;;;;;;;23.37;16.23;;;12.90;85.70;;;;;;5128151;29;20039;-33
2022/01/19 01:20:37;;;;;;;20.07;14.03;;;12.80;86.20;;;;;;5112666;29;20059;-31
2022/01/19 01:23:16;;;;;;;21.77;12.47;;;12.80;86.60;;;;;;5129222;29;20470;-31
2022/01/19 01:25:47;;;;;;;22.30;12.40;;;12.80;86.60;;;;;;5129060;29;20039;-32
2022/01/19 01:28:21;;;;;;;21.10;11.90;;;12.80;86.30;;;;;;5128760;29;20043;-31
2022/01/19 01:30:52;;;;;;;20.20;12.97;;;12.80;86.20;;;;;;5128456;29;20047;-31
2022/01/19 01:33:23;;;;;;;20.33;12.97;;;12.80;86.00;;;;;;5111731;29;20114;-31
2022/01/19 01:35:57;;;;;;;22.40;14.53;;;12.90;86.00;;;;;;5095825;29;20051;-31
2022/01/19 01:38:30;;;;;;;20.07;12.80;;;12.80;85.90;;;;;;5126342;29;20130;-32
2022/01/19 01:41:01;;;;;;;21.47;13.97;;;12.80;85.90;;;;;;5128394;29;20050;-31
2022/01/19 01:43:34;;;;;;;21.80;12.63;;;12.80;86.10;;;;;;5095505;29;20079;-31
2022/01/19 01:46:15;;;;;;;17.87;13.10;;;12.80;86.00;;;;;;5128509;29;20055;-31
2022/01/19 01:48:49;;;;;;;21.50;15.03;;;12.80;86.00;;;;;;5111922;29;20055;-32
2022/01/19 01:54:12;;;;;;;22.77;12.90;;;12.80;86.00;;;;;;5128416;29;20074;-32
2022/01/19 01:56:43;;;;;;;22.00;13.57;;;12.90;86.00;;;;;;5127430;29;20078;-31
2022/01/19 01:59:15;;;;;;;35.53;21.77;;;12.90;86.60;;;;;;5111099;29;20043;-34
2022/01/19 02:01:46;;;;;;;27.17;18.13;;;12.90;86.10;;;;;;5110796;29;20055;-33
2022/01/19 02:04:21;;;;;;;24.60;16.50;;;12.90;86.10;;;;;;5110906;29;20078;-32
2022/01/19 02:09:45;;;;;;;27.43;18.37;;;12.80;86.20;;;;;;5128327;29;20074;-31
2022/01/19 02:23:35;;;;;;;22.57;15.33;;;12.80;86.60;;;;;;5127771;29;20047;-31
2022/01/19 02:26:15;;;;;;;22.50;13.70;;;12.80;86.80;;;;;;5127022;29;20055;-32
2022/01/19 02:28:59;;;;;;;21.27;13.30;;;12.80;86.80;;;;;;5127964;28;20417;-32
2022/01/19 02:43:03;;;;;;;23.07;14.80;;;12.70;87.30;;;;;;5127753;29;20055;-32
2022/01/19 02:51:22;;;;;;;20.60;14.63;;;12.90;86.90;;;;;;5113586;29;20078;-32
2022/01/19 02:53:53;;;;;;;26.43;15.67;;;12.90;87.00;;;;;;5109805;29;20047;-32
2022/01/19 02:56:31;;;;;;;29.10;18.73;;;12.90;87.00;;;;;;5110009;29;20494;-34
2022/01/19 02:59:14;;;;;;;28.47;18.37;;;12.90;87.10;;;;;;5126052;29;20509;-32
2022/01/19 03:10:21;;;;;;;22.03;14.73;;;12.80;87.20;;;;;;5034695;29;20079;-31
2022/01/19 03:12:55;;;;;;;23.77;14.87;;;12.80;87.20;;;;;;5046372;29;20053;-32
2022/01/19 03:15:27;;;;;;;21.73;14.93;;;12.80;87.30;;;;;;5046289;29;20123;-32
2022/01/19 03:17:59;;;;;;;21.17;14.57;;;12.80;87.40;;;;;;5030877;29;20108;-34
2022/01/19 03:20:33;;;;;;;21.00;13.43;;;12.80;87.50;;;;;;5015634;29;20061;-31
2022/01/19 03:23:17;;;;;;;22.03;13.43;;;12.80;87.40;;;;;;5031603;29;20400;-31
2022/01/19 03:25:49;;;;;;;18.83;12.90;;;12.80;87.50;;;;;;5046210;29;20149;-31
2022/01/19 03:28:22;;;;;;;19.47;12.17;;;12.80;87.70;;;;;;5031066;29;20137;-34
2022/01/19 03:30:53;;;;;;;20.40;12.07;;;12.80;87.80;;;;;;5046490;29;20391;-34
2022/01/19 03:33:24;;;;;;;17.43;11.77;;;12.80;87.90;;;;;;5030670;29;20233;-31
2022/01/19 03:35:55;;;;;;;23.40;17.43;;;12.80;88.00;;;;;;5046164;29;20097;-30
2022/01/19 03:38:29;;;;;;;22.33;17.33;;;12.70;87.80;;;;;;5045818;29;20056;-34
2022/01/19 03:41:03;;;;;;;17.37;12.07;;;12.80;87.80;;;;;;5048104;29;20496;-33
2022/01/19 03:43:37;;;;;;;18.70;12.40;;;12.80;87.60;;;;;;5052806;29;20491;-33
2022/01/19 03:46:14;;;;;;;16.20;11.50;;;12.80;87.50;;;;;;5062831;29;20594;-31
2022/01/19 03:51:43;;;;;;;20.00;13.83;;;12.90;87.40;;;;;;5021109;29;20058;-32
2022/01/19 03:54:16;;;;;;;20.67;16.23;;;12.90;87.40;;;;;;5033097;29;20064;-32
2022/01/19 03:56:47;;;;;;;17.83;12.20;;;12.90;87.50;;;;;;5033014;29;20049;-31
2022/01/19 03:59:19;;;;;;;23.57;15.80;;;12.80;87.70;;;;;;5033521;29;20072;-31
2022/01/19 04:01:52;;;;;;;25.23;17.27;;;12.80;87.90;;;;;;5032881;29;20056;-32
2022/01/19 04:09:31;;;;;;;25.03;15.50;;;12.90;87.80;;;;;;5033036;29;20062;-32
2022/01/19 04:12:03;;;;;;;27.03;17.00;;;12.90;87.70;;;;;;5032979;29;20049;-32
2022/01/19 04:14:35;;;;;;;23.97;17.63;;;12.90;87.70;;;;;;5032827;29;20066;-34
2022/01/19 04:17:09;;;;;;;21.80;15.87;;;12.90;87.70;;;;;;5032504;29;20056;-31
2022/01/19 04:22:17;;;;;;;21.43;15.03;;;12.90;87.80;;;;;;5032841;29;20500;-32
2022/01/19 04:24:48;;;;;;;25.03;17.23;;;12.90;87.80;;;;;;5033470;29;20057;-33
2022/01/19 04:30:13;;;;;;;18.30;12.77;;;12.90;87.90;;;;;;5130943;29;20098;-34
2022/01/19 04:35:32;;;;;;;18.57;12.27;;;12.90;87.80;;;;;;5133265;28;20105;-31
2022/01/19 05:06:09;;;;;;;17.40;11.13;;;13.00;88.20;;;;;;5039517;29;20094;-31
2022/01/19 05:14:06;;;;;;;15.67;10.60;;;13.30;87.40;;;;;;5027007;29;20154;-34
2022/01/19 05:16:37;;;;;;;15.53;10.67;;;13.40;87.00;;;;;;5026193;29;20081;-32
2022/01/19 05:19:08;;;;;;;15.37;10.83;;;13.50;87.00;;;;;;5011188;29;20613;-33
2022/01/19 05:21:40;;;;;;;13.90;9.97;;;13.50;87.00;;;;;;5025745;29;20061;-31
2022/01/19 05:24:11;;;;;;;15.63;9.87;;;13.50;87.00;;;;;;5010879;29;20084;-33
2022/01/19 05:26:42;;;;;;;14.43;10.23;;;13.60;87.20;;;;;;5010893;29;20042;-32
2022/01/19 05:29:13;;;;;;;18.77;11.90;;;13.60;87.00;;;;;;5026450;29;20053;-33
2022/01/19 05:31:44;;;;;;;18.83;14.57;;;13.60;87.00;;;;;;5026277;29;20105;-32
2022/01/19 05:34:15;;;;;;;20.17;13.63;;;13.60;87.10;;;;;;5004547;29;20081;-32
2022/01/19 05:36:46;;;;;;;22.63;13.53;;;13.60;87.00;;;;;;5030589;29;20105;-32
2022/01/19 05:39:17;;;;;;;18.20;13.20;;;13.60;87.10;;;;;;5041604;29;20056;-31
2022/01/19 05:41:48;;;;;;;20.40;13.33;;;13.60;87.30;;;;;;5056145;29;20121;-31
2022/01/19 05:44:19;;;;;;;19.37;14.63;;;13.50;87.40;;;;;;5145674;28;20046;-31
2022/01/19 05:46:50;;;;;;;22.23;16.27;;;13.50;87.60;;;;;;5145733;28;20046;-31
2022/01/19 05:49:21;;;;;;;18.77;12.93;;;13.50;87.50;;;;;;5146070;28;20053;-31
2022/01/19 05:51:52;;;;;;;17.97;13.57;;;13.40;87.60;;;;;;5129591;28;20042;-33
2022/01/19 05:54:23;;;;;;;16.73;12.30;;;13.40;87.70;;;;;;5147999;28;20054;-34
2022/01/19 05:56:54;;;;;;;18.70;12.57;;;13.40;87.60;;;;;;5148360;28;20484;-31
2022/01/19 05:59:25;;;;;;;18.57;12.80;;;13.30;87.90;;;;;;5144595;28;20042;-32
2022/01/19 06:01:57;;;;;;;20.27;13.97;;;13.40;88.00;;;;;;5139178;28;20051;-32
2022/01/19 06:04:28;;;;;;;15.93;11.87;;;13.30;87.80;;;;;;5128209;28;20074;-32
2022/01/19 06:07:02;;;;;;;18.03;12.33;;;13.40;87.90;;;;;;5145697;28;20123;-32
2022/01/19 06:12:06;;;;;;;16.57;12.83;;;13.30;88.20;;;;;;5145574;28;20062;-31
2022/01/19 06:14:40;;;;;;;16.57;11.83;;;13.40;88.10;;;;;;5128180;28;20047;-31
2022/01/19 06:17:12;;;;;;;18.57;12.83;;;13.50;88.20;;;;;;5145664;28;20043;-31
2022/01/19 06:19:47;;;;;;;15.37;12.07;;;13.60;87.80;;;;;;5128109;28;20051;-31
2022/01/19 06:22:21;;;;;;;16.97;13.33;;;13.70;87.40;;;;;;5128943;28;20042;-31
2022/01/19 06:24:52;;;;;;;15.40;11.32;;;13.80;87.10;;;;;;5145183;28;20046;-33
2022/01/19 06:27:23;;;;;;;22.10;13.07;;;13.90;86.80;;;;;;5145344;28;20042;-32
2022/01/19 06:29:54;;;;;;;;;;;14.00;86.50;;;;;;5145507;28;20133;-31
2022/01/19 06:32:26;;;;;;;;;;;14.00;86.40;;;;;;5145972;28;19926;-32
2022/01/19 06:34:57;;;;;;;;;;;14.00;86.30;;;;;;5145356;28;19922;-32
2022/01/19 06:37:28;;;;;;;;;;;14.10;86.20;;;;;;5146013;28;19929;-32
2022/01/19 06:39:59;;;;;;;;;;;14.00;86.20;;;;;;5108635;29;19950;-31
2022/01/19 06:42:30;;;;;;;;;;;14.10;86.20;;;;;;5145500;28;19922;-32
2022/01/19 06:45:02;;;;;;;;;;;14.10;86.10;;;;;;5145679;28;19922;-32
2022/01/19 06:47:33;;;;;;;;;;;14.10;86.40;;;;;;5145394;28;19957;-33
2022/01/19 06:50:05;;;;;;;;;;;14.00;86.20;;;;;;5145711;28;20020;-31
2022/01/19 06:52:36;;;;;;;;;;;14.00;86.20;;;;;;5124270;29;19973;-32
2022/01/19 06:55:07;;;;;;;;;;;14.00;86.40;;;;;;5137498;28;19922;-31
2022/01/19 06:57:38;;;;;;;;;;;13.90;86.50;;;;;;5145287;28;19985;-32
2022/01/19 07:00:11;;;;;;;19.40;14.70;;;13.90;86.50;;;;;;5144749;28;19926;-31
2022/01/19 07:02:42;;;;;;;22.27;18.27;;;13.90;86.60;;;;;;5144896;28;20485;-31
2022/01/19 07:05:13;;;;;;;20.33;16.93;;;13.90;86.60;;;;;;5127515;28;20090;-31
2022/01/19 07:07:44;;;;;;;20.63;15.83;;;13.90;86.80;;;;;;5127378;28;20114;-32
2022/01/19 07:10:15;;;;;;;18.13;14.27;;;13.90;86.80;;;;;;5144697;28;20126;-32
2022/01/19 07:12:46;;;;;;;24.70;17.47;;;13.80;86.90;;;;;;5144634;28;20053;-32
2022/01/19 07:15:17;;;;;;;21.20;15.07;;;13.80;86.90;;;;;;5143970;28;20039;-32
2022/01/19 07:17:48;;;;;;;23.70;16.47;;;13.70;87.00;;;;;;5144532;28;20051;-32
2022/01/19 07:20:18;;;;;;;22.23;15.30;;;13.70;87.40;;;;;;5138550;28;20103;-31
2022/01/19 07:22:50;;;;;;;37.97;26.27;;;13.60;87.30;;;;;;5124879;29;20043;-32
2022/01/19 07:25:21;;;;;;;25.67;17.70;;;13.60;87.40;;;;;;5126691;29;20497;-32
2022/01/19 07:27:52;;;;;;;22.73;15.60;;;13.60;87.50;;;;;;5127049;29;20046;-31
2022/01/19 07:30:24;;;;;;;16.80;13.43;;;13.60;87.60;;;;;;5126779;29;20047;-33
2022/01/19 07:32:55;;;;;;;16.03;13.57;;;13.50;87.60;;;;;;5125719;28;20046;-32
2022/01/19 07:35:26;;;;;;;22.00;16.20;;;13.50;87.80;;;;;;5126261;29;20505;-31
2022/01/19 07:37:57;;;;;;;23.63;15.87;;;13.50;87.90;;;;;;5125968;29;20062;-32
2022/01/19 07:40:28;;;;;;;19.73;15.17;;;13.50;87.90;;;;;;5125475;29;20059;-32
2022/01/19 07:42:59;;;;;;;22.63;17.47;;;13.50;88.00;;;;;;5126103;29;20054;-32
2022/01/19 07:45:30;;;;;;;25.70;17.13;;;13.40;88.10;;;;;;5126550;29;20043;-31
2022/01/19 07:48:02;;;;;;;22.70;17.07;;;13.40;88.20;;;;;;5109178;29;20478;-31
2022/01/19 07:50:36;;;;;;;23.63;18.23;;;13.40;88.80;;;;;;5126421;29;20071;-32
2022/01/19 07:53:07;;;;;;;24.10;19.27;;;13.40;88.20;;;;;;5126070;28;20095;-31
2022/01/19 07:55:38;;;;;;;28.13;19.27;;;13.40;88.20;;;;;;5126417;29;20441;-31
2022/01/19 07:58:10;;;;;;;21.50;17.43;;;13.40;88.20;;;;;;5126154;29;20078;-32
2022/01/19 08:00:42;;;;;;;25.37;17.97;;;13.40;88.30;;;;;;5088445;29;20142;-33
2022/01/19 08:03:25;;;;;;;23.30;17.97;;;13.40;88.30;;;;;;5088564;29;20043;-34
2022/01/19 08:05:58;;;;;;;23.73;19.63;;;13.40;88.40;;;;;;5104411;29;20183;-31
2022/01/19 08:08:32;;;;;;;23.67;18.03;;;13.40;88.30;;;;;;5104296;29;20058;-31
2022/01/19 08:11:21;;;;;;;25.60;18.10;;;13.40;88.40;;;;;;5104561;29;20143;-32
2022/01/19 08:13:55;;;;;;;20.77;16.20;;;13.40;88.60;;;;;;5103764;29;20078;-31
2022/01/19 08:16:33;;;;;;;23.80;17.30;;;13.40;88.50;;;;;;5101979;29;20518;-32
2022/01/19 08:19:12;;;;;;;21.17;17.10;;;13.40;88.40;;;;;;5101543;29;20056;-32
2022/01/19 08:21:43;;;;;;;22.77;16.85;;;13.40;88.50;;;;;;5101809;29;20193;-34
2022/01/19 08:24:14;;;;;;;20.90;16.27;;;13.40;88.50;;;;;;5088284;29;20092;-31
2022/01/19 08:26:45;;;;;;;22.93;16.97;;;13.40;88.50;;;;;;5102452;29;20062;-31
2022/01/19 08:29:16;;;;;;;22.97;18.30;;;13.40;88.30;;;;;;5104404;29;20062;-34
2022/01/19 08:31:47;;;;;;;23.10;16.50;;;13.40;88.30;;;;;;5105405;29;20064;-32
2022/01/19 08:34:20;;;;;;;21.27;16.27;;;13.50;88.20;;;;;;5105392;29;20502;-31
2022/01/19 08:37:02;;;;;;;22.87;16.77;;;13.50;88.20;;;;;;5105538;29;20134;-31
2022/01/19 08:39:59;;;;;;;50.23;37.40;;;13.50;88.20;;;;;;5144420;28;20084;-32
2022/01/19 08:42:30;;;;;;;24.23;19.80;;;13.50;88.10;;;;;;5147117;28;20082;-32
2022/01/19 08:45:07;;;;;;;24.77;18.00;;;13.60;88.20;;;;;;5147157;28;20780;-32
2022/01/19 08:47:39;;;;;;;22.53;17.07;;;13.60;88.20;;;;;;5130281;28;20145;-32
2022/01/19 08:50:12;;;;;;;22.17;15.73;;;13.50;88.20;;;;;;5130093;28;20802;-31
2022/01/19 08:52:43;;;;;;;21.27;15.57;;;13.50;88.20;;;;;;5147156;28;20047;-32
2022/01/19 08:55:14;;;;;;;19.60;16.27;;;13.50;88.10;;;;;;5130099;28;20066;-31
2022/01/19 08:57:46;;;;;;;21.10;16.03;;;13.50;88.20;;;;;;5147289;28;20074;-34
2022/01/19 09:00:29;;;;;;;17.70;14.83;;;13.40;88.20;;;;;;5147143;28;20050;-34
2022/01/19 09:03:02;;;;;;;19.53;15.10;;;13.40;88.20;;;;;;5115391;28;20058;-32
2022/01/19 09:05:34;;;;;;;20.13;15.70;;;13.40;88.30;;;;;;5146588;28;20050;-33
2022/01/19 09:08:34;;;;;;;21.57;15.97;;;13.40;88.30;;;;;;5128940;28;20059;-31
2022/01/19 09:11:11;;;;;;;26.10;17.47;;;13.40;88.40;;;;;;5146657;28;20046;-31
2022/01/19 09:14:24;;;;;;;19.00;15.37;;;13.40;88.40;;;;;;5145892;28;20077;-31
2022/01/19 09:17:30;;;;;;;18.70;14.65;;;13.40;88.50;;;;;;5113553;28;20520;-33
2022/01/19 09:20:44;;;;;;;18.03;13.80;;;13.30;88.40;;;;;;5137297;28;20097;-31
2022/01/19 09:27:21;;;;;;;;;;;;;;;;;;;;;
2022/01/19 09:30:50;;;;;;;57.00;39.43;;;13.20;88.90;;;;;;5123937;28;20062;-33
2022/01/19 09:33:54;;;;;;;56.40;35.10;;;13.20;89.10;;;;;;5045412;29;20092;-31
2022/01/19 09:36:48;;;;;;;32.87;25.47;;;13.20;89.10;;;;;;5064348;29;20052;-31
2022/01/19 09:43:13;;;;;;;27.13;24.23;;;13.20;89.10;;;;;;5025879;29;20122;-31
2022/01/19 09:45:55;;;;;;;64.53;39.53;;;13.10;89.30;;;;;;5026146;29;20066;-33
2022/01/19 09:48:27;;;;;;;37.57;27.37;;;13.10;89.40;;;;;;5026198;29;20049;-32
2022/01/19 09:50:59;;;;;;;32.27;25.40;;;13.10;89.20;;;;;;5026224;29;20065;-32
2022/01/19 09:53:30;;;;;;;27.27;22.03;;;13.00;89.30;;;;;;5025988;29;20080;-31
2022/01/19 09:56:03;;;;;;;25.27;19.63;;;13.00;89.40;;;;;;5026147;29;20073;-32
2022/01/19 09:58:34;;;;;;;39.97;30.25;;;13.00;89.30;;;;;;5026056;29;20057;-31
2022/01/19 10:01:05;;;;;;;30.03;22.83;;;13.10;89.40;;;;;;5010678;29;20053;-34
2022/01/19 10:03:36;;;;;;;26.23;20.90;;;13.20;89.50;;;;;;5032117;29;20805;-32
2022/01/19 10:06:09;;;;;;;30.90;25.10;;;13.30;89.30;;;;;;5064606;29;20056;-32
2022/01/19 10:08:47;;;;;;;35.05;26.67;;;13.40;89.10;;;;;;5048886;29;20060;-31
2022/01/19 10:11:29;;;;;;;28.57;23.37;;;13.40;89.20;;;;;;5064471;29;20153;-32
2022/01/19 10:16:59;;;;;;;30.33;23.30;;;13.40;88.30;;;;;;5064353;29;20143;-31
2022/01/19 10:19:37;;;;;;;29.80;22.80;;;13.40;88.60;;;;;;5063868;29;20408;-34
2022/01/19 10:22:09;;;;;;;32.00;25.00;;;13.50;88.30;;;;;;5063374;29;20052;-33
2022/01/19 10:24:41;;;;;;;29.13;24.17;;;13.50;88.20;;;;;;5064219;29;20055;-32
2022/01/19 10:27:33;;;;;;;30.23;23.83;;;13.50;88.20;;;;;;5064186;29;20549;-32
2022/01/19 10:30:04;;;;;;;31.57;23.03;;;13.40;88.20;;;;;;5064041;29;20507;-31
2022/01/19 10:32:41;;;;;;;29.80;24.80;;;13.40;88.10;;;;;;5048293;29;20084;-31
2022/01/19 10:35:30;;;;;;;28.73;20.60;;;13.40;88.20;;;;;;5064227;29;20393;-34
2022/01/19 10:38:12;;;;;;;27.63;20.60;;;13.40;88.30;;;;;;5063796;29;20405;-31
2022/01/19 10:40:57;;;;;;;34.33;26.93;;;13.40;88.30;;;;;;5063500;29;20064;-32
2022/01/19 10:43:33;;;;;;;30.63;22.90;;;13.40;88.40;;;;;;5085490;29;20450;-31
2022/01/19 10:46:16;;;;;;;26.83;19.67;;;13.50;88.40;;;;;;5083899;29;20052;-31
2022/01/19 10:48:47;;;;;;;20.75;15.85;;;13.40;88.60;;;;;;5102965;29;20131;-32
2022/01/19 10:51:20;;;;;;;20.10;15.60;;;13.40;88.40;;;;;;5083924;29;20048;-31
2022/01/19 10:54:19;;;;;;;17.67;13.73;;;13.30;88.40;;;;;;5083261;29;20100;-33
2022/01/19 10:56:54;;;;;;;17.40;13.83;;;13.30;90.10;;;;;;5101213;29;20525;-31
2022/01/19 10:59:30;;;;;;;16.20;13.60;;;13.20;88.50;;;;;;5036558;29;20095;-32
2022/01/19 11:02:01;;;;;;;17.37;13.60;;;13.20;88.60;;;;;;5086462;29;20159;-31
2022/01/19 11:04:34;;;;;;;23.70;16.57;;;13.20;88.50;;;;;;5102513;29;20048;-32
2022/01/19 11:07:13;;;;;;;19.10;13.93;;;13.10;88.70;;;;;;5084701;29;20084;-31
2022/01/19 11:09:57;;;;;;;18.37;14.30;;;13.10;88.60;;;;;;5082939;29;20060;-32
2022/01/19 11:12:32;;;;;;;20.77;15.30;;;13.10;88.80;;;;;;5113632;28;20122;-31
2022/01/19 11:15:03;;;;;;;22.10;16.33;;;13.10;88.70;;;;;;5127055;28;20054;-32
2022/01/19 11:17:34;;;;;;;18.73;16.10;;;13.10;88.60;;;;;;5144427;28;20043;-33
2022/01/19 11:20:10;;;;;;;18.23;14.77;;;13.10;89.00;;;;;;5144528;28;20488;-32
2022/01/19 11:22:49;;;;;;;20.13;15.37;;;13.00;88.70;;;;;;5127578;28;20064;-33
2022/01/19 11:25:31;;;;;;;23.23;18.27;;;13.00;88.80;;;;;;5127242;28;20054;-34
2022/01/19 11:28:03;;;;;;;25.30;19.23;;;13.00;88.90;;;;;;5128573;28;20060;-31
2022/01/19 11:30:35;;;;;;;38.37;26.13;;;13.00;88.90;;;;;;5127177;28;20054;-33
2022/01/19 11:33:15;;;;;;;35.63;25.57;;;13.00;89.00;;;;;;5107043;29;20074;-31
2022/01/19 11:35:47;;;;;;;36.60;25.83;;;13.00;88.80;;;;;;5120736;28;20055;-31
2022/01/19 11:38:33;;;;;;;20.50;18.03;;;13.00;89.20;;;;;;5127315;28;20043;-31
2022/01/19 11:41:36;;;;;;;26.80;20.47;;;13.00;88.80;;;;;;5122871;29;20078;-33
2022/01/19 11:44:28;;;;;;;30.13;21.53;;;13.00;89.00;;;;;;5108559;29;20047;-31
2022/01/19 11:47:58;;;;;;;;;;;;;;;;;;;;;
2022/01/19 11:50:55;;;;;;;47.28;30.88;;;13.00;89.10;;;;;;5234253;23;20136;-32
2022/01/19 11:53:26;;;;;;;36.73;26.37;;;13.10;89.00;;;;;;5148892;28;20054;-32
2022/01/19 11:56:06;;;;;;;30.47;24.60;;;13.10;88.70;;;;;;5164805;28;20065;-31
2022/01/19 11:59:04;;;;;;;33.30;23.60;;;13.10;88.50;;;;;;5166611;28;20506;-32
2022/01/19 12:01:36;;;;;;;26.13;22.33;;;13.10;88.20;;;;;;5166519;28;20399;-31
2022/01/19 12:04:14;;;;;;;32.10;24.80;;;13.10;88.30;;;;;;5152858;28;20368;-32
2022/01/19 12:06:47;;;;;;;25.10;21.77;;;13.10;88.40;;;;;;5170470;28;20065;-31
2022/01/19 12:09:18;;;;;;;29.53;24.83;;;13.10;88.10;;;;;;5170329;28;20049;-31
2022/01/19 12:14:39;;;;;;;27.83;21.77;;;13.10;88.10;;;;;;5169248;28;20046;-32
2022/01/19 12:17:26;;;;;;;32.50;23.77;;;13.20;88.10;;;;;;5170295;28;20049;-33
2022/01/19 12:20:01;;;;;;;25.37;20.43;;;13.20;88.20;;;;;;5169445;28;20049;-31
2022/01/19 12:22:35;;;;;;;25.77;19.57;;;13.20;88.20;;;;;;5170295;28;20046;-33
2022/01/19 12:25:08;;;;;;;50.33;25.60;;;13.20;88.20;;;;;;5170025;28;20133;-32
2022/01/19 12:27:50;;;;;;;42.13;22.47;;;13.20;88.20;;;;;;5152622;28;20108;-31
2022/01/19 12:30:24;;;;;;;25.63;20.93;;;13.10;88.10;;;;;;5152621;28;20496;-33
2022/01/19 12:33:04;;;;;;;32.07;23.70;;;13.10;88.10;;;;;;5153177;28;20057;-31
2022/01/19 12:35:36;;;;;;;32.83;24.53;;;13.10;88.30;;;;;;5170339;28;20057;-31
2022/01/19 12:38:23;;;;;;;44.80;26.07;;;13.10;88.10;;;;;;5169623;28;20046;-32
2022/01/19 12:40:57;;;;;;;30.57;22.13;;;13.20;88.20;;;;;;5169659;28;20049;-33
2022/01/19 12:43:36;;;;;;;41.60;26.13;;;13.10;88.10;;;;;;5169830;28;20046;-31
2022/01/19 12:46:09;;;;;;;27.63;22.20;;;13.10;88.20;;;;;;5152493;28;20447;-31
2022/01/19 12:48:47;;;;;;;28.13;22.73;;;13.10;88.30;;;;;;5168690;28;20046;-30
2022/01/19 12:51:39;;;;;;;27.43;21.80;;;13.10;88.30;;;;;;5147070;28;20078;-32
2022/01/19 12:54:12;;;;;;;26.83;21.37;;;13.10;88.30;;;;;;5149285;28;20133;-31
2022/01/19 12:57:15;;;;;;;23.45;20.05;;;13.00;88.20;;;;;;5132679;28;20085;-33
2022/01/19 12:59:48;;;;;;;23.30;18.60;;;13.00;88.10;;;;;;5145464;28;20190;-31
2022/01/19 13:02:20;;;;;;;23.95;18.40;;;13.00;88.00;;;;;;5148169;28;20390;-31
2022/01/19 13:04:53;;;;;;;28.57;20.47;;;13.10;88.10;;;;;;5132012;28;20058;-32
2022/01/19 13:07:26;;;;;;;26.48;19.80;;;13.10;88.10;;;;;;5149287;28;20504;-32
2022/01/19 13:10:20;;;;;;;;;;;13.10;88.20;;;;;;5149597;28;20390;-32
2022/01/19 13:15:51;;;;;;;27.40;21.97;;;13.00;88.50;;;;;;5148622;28;20137;-32
2022/01/19 13:18:42;;;;;;;23.80;19.97;;;13.00;88.40;;;;;;5148941;28;20041;-32
2022/01/19 13:21:15;;;;;;;24.53;19.60;;;13.00;88.50;;;;;;5149066;28;20077;-33
2022/01/19 13:24:01;;;;;;;24.85;18.90;;;13.00;88.50;;;;;;5147857;28;20075;-32
2022/01/19 13:26:41;;;;;;;23.30;18.13;;;13.10;88.40;;;;;;5148759;28;20129;-32
2022/01/19 13:29:39;;;;;;;22.30;18.63;;;13.10;88.40;;;;;;5148459;28;20053;-32
2022/01/19 13:32:13;;;;;;;24.57;19.10;;;13.00;88.80;;;;;;5147917;28;20504;-32
2022/01/19 13:34:58;;;;;;;25.67;18.88;;;13.00;89.00;;;;;;5148565;28;20061;-32
2022/01/19 13:37:51;;;;;;;26.73;21.47;;;13.00;89.00;;;;;;5148355;28;20138;-31
2022/01/19 13:40:27;;;;;;;23.30;19.57;;;13.10;89.20;;;;;;5148566;28;20042;-31
2022/01/19 13:43:01;;;;;;;28.13;20.90;;;13.10;89.20;;;;;;5148496;28;20458;-32
2022/01/19 13:48:28;;;;;;;27.43;19.30;;;13.10;89.10;;;;;;5131512;28;20073;-31
2022/01/19 13:51:02;;;;;;;26.10;19.77;;;13.10;89.20;;;;;;5146962;28;20381;-32
2022/01/19 13:53:39;;;;;;;24.13;20.10;;;13.10;89.30;;;;;;5148916;28;20043;-31
2022/01/19 13:56:11;;;;;;;32.20;24.43;;;13.10;89.10;;;;;;5148469;28;20055;-31
2022/01/19 13:58:47;;;;;;;40.03;25.83;;;13.20;89.10;;;;;;5148279;28;20050;-33
2022/01/19 14:01:28;;;;;;;46.33;32.27;;;13.20;88.90;;;;;;5148335;28;20189;-32
2022/01/19 14:04:05;;;;;;;33.80;22.03;;;13.20;89.10;;;;;;5147165;28;20043;-31
2022/01/19 14:07:01;;;;;;;28.23;19.43;;;13.20;88.70;;;;;;5147687;28;20034;-31
2022/01/19 14:09:34;;;;;;;28.27;19.07;;;13.20;88.80;;;;;;5148378;28;20039;-32
2022/01/19 14:12:13;;;;;;;53.55;37.45;;;13.30;88.70;;;;;;5148156;28;20503;-31
2022/01/19 14:14:58;;;;;;;41.87;28.50;;;13.30;88.80;;;;;;5146385;28;20129;-33
2022/01/19 14:17:34;;;;;;;43.77;28.13;;;13.30;88.80;;;;;;5147613;28;20094;-32
2022/01/19 14:20:19;;;;;;;49.53;32.80;;;13.20;88.80;;;;;;5147672;28;20059;-31
2022/01/19 14:22:53;;;;;;;37.27;25.57;;;13.20;88.90;;;;;;5146954;28;20058;-31
2022/01/19 14:25:24;;;;;;;49.23;34.37;;;13.30;89.00;;;;;;5146031;28;20130;-31
2022/01/19 14:27:57;;;;;;;36.27;25.37;;;13.30;88.90;;;;;;5146865;28;20133;-31
2022/01/19 14:30:29;;;;;;;31.95;23.55;;;13.30;88.90;;;;;;5147322;28;20145;-31
2022/01/19 14:33:15;;;;;;;28.50;24.13;;;13.30;88.90;;;;;;5147373;28;20054;-31
2022/01/19 14:35:51;;;;;;;24.37;20.80;;;13.30;89.00;;;;;;5148116;28;20046;-33
2022/01/19 14:38:38;;;;;;;24.10;21.30;;;13.30;89.00;;;;;;5130340;28;20050;-31
2022/01/19 14:41:25;;;;;;;25.43;21.40;;;13.30;89.00;;;;;;5147627;28;20559;-32
2022/01/19 14:44:05;;;;;;;27.53;22.03;;;13.40;89.10;;;;;;5145974;28;20053;-31
2022/01/19 14:47:05;;;;;;;25.00;20.70;;;13.50;88.70;;;;;;5147768;28;20499;-31
2022/01/19 14:49:36;;;;;;;25.33;21.40;;;13.50;88.50;;;;;;5147389;28;20047;-31
2022/01/19 14:52:13;;;;;;;27.87;23.83;;;13.50;88.30;;;;;;5161188;28;20053;-31
2022/01/19 14:54:46;;;;;;;28.73;23.10;;;13.50;88.20;;;;;;5167578;28;20042;-32
2022/01/19 14:57:18;;;;;;;29.63;25.27;;;13.50;88.00;;;;;;5150124;28;20046;-33
2022/01/19 14:59:51;;;;;;;31.83;27.13;;;13.50;87.90;;;;;;5167043;28;20051;-32
2022/01/19 15:02:22;;;;;;;33.90;28.33;;;13.50;87.90;;;;;;5167061;28;20053;-34
2022/01/19 15:04:53;;;;;;;31.77;27.53;;;13.50;87.90;;;;;;5167095;28;20069;-31
2022/01/19 15:07:27;;;;;;;33.73;27.93;;;13.50;87.80;;;;;;5167019;28;20092;-33
2022/01/19 15:09:59;;;;;;;33.47;28.37;;;13.50;87.70;;;;;;5167130;28;20058;-32
2022/01/19 15:12:31;;;;;;;32.90;27.95;;;13.40;87.70;;;;;;5166970;28;20495;-33
2022/01/19 15:15:04;;;;;;;36.83;30.33;;;13.40;87.70;;;;;;5166885;28;20421;-32
2022/01/19 15:17:37;;;;;;;93.07;84.50;;;13.40;87.70;;;;;;5167411;28;20388;-31